首页
METAR-TAF:

METAR-TAF

机场 :

科威特, 科威特

科威特國際機場

纬度: 29-13N, 经度: 047-59E, 海拔: 55米

当前天气观测

该预报发布于43分钟前的01:00 UTC
风速7节,风向南转南东
温度 9°C
湿度 93%
气压 1014 hPa
能见度10公里或以上
1500米以下无云,无积雨云

METAR: OKBK 190100Z 16007KT CAVOK 09/08 Q1014 NOSIG

时间: 04:43 (01:43 UTC)

预报

该预报发布于2小时和58分钟前的22:45 UTC
预报有效从19日的 00点(UTC)到 20日的 06点(UTC)
风速10节,风向南转南东,有时为25节阵风
能見度: 6000
短暂存在
从 19日的 03点(UTC)到 19日的 15点(UTC)
能見度: 2000
高吹尘

TAF: OKBK 182245Z 1900/2006 15010G25KT 6000 NSC TEMPO 1903/1915 2000 BLDU

超过4000个机场的气象观测和天气预报(METAR&TAF报告)。

可查询的气象台以黄色和红色小点在地图上表示。

将鼠标移到小点上方,可查看气象台名称。

然后点击查看天气观测和预报。

如需切换地图:点击带黑十字的绿色按钮放大地图;点击带横线的绿色按钮缩小地图;或者点击绿色箭头查看邻近地区的地图。


METAR-TAF: